Longview, WA (98632)

12:35 AM PST on December 10, 2016 (GMT -0800)
| | Change Station

Elev -9999 ft 0.00 °N, 0.00 °E | Updated

Cloudy
Cloudy
51 °F
Feels Like 51 °F
N
3
Wind Variable Wind from WSW
Gusts mph

Today
High -- | Low -- °F
--% Chance of Precip.
Yesterday
High -- | Low -- °F
Precip. -- in
Pressure 29.91 in
Visibility 10.0 miles
Clouds Mostly Cloudy 4200 ft
Overcast 5000 ft
Dew Point 46 °F
Humidity 83%
Rainfall --
Snow Depth Not available.
7:43 AM 4:25 PM
Waxing Gibbous, 81% visible
METAR KKLS 100756Z AUTO 14009KT 10SM -RA BKN042 OVC050 02/01 A2989 RMK AO2 UPB20E26 SLP127 P0004 T00170011 400170006 FZRANO
Pressure 29.91 in
Visibility 10.0 miles
Clouds Mostly Cloudy 4200 ft
Overcast 5000 ft
Dew Point 46 °F
Humidity 83%
Rainfall --
Snow Depth Not available.
7:43 AM 4:25 PM
Waxing Gibbous, 81% visible
METAR KKLS 100756Z AUTO 14009KT 10SM -RA BKN042 OVC050 02/01 A2989 RMK AO2 UPB20E26 SLP127 P0004 T00170011 400170006 FZRANO

10-Day Weather Forecast

Almanac

Astronomy

Dec. 10, 2016 Rise Set
Actual Time
Civil Twilight
Nautical Twilight
Astronomical Twilight
Moon
Length of Visible Light
Length of Day
Tomorrow will be .
, % of the Moon is Illuminated

Today's Extremes

State Highs State Lows

Community

WunderPhotos

Upload Photos

1,956,538 photos uploaded!

WunderBlog® & News

Nearby

Air Quality

  Air Quality AQ Index Pollutant
Not available.

Snow Depth

Station Depth Elevation

Earthquake Activity

City Distance Mag. Time & Date
Minimum magnitude displayed is 2.5.

Coastal Water Temperatures

Place Temperature

Stations

Nearby Weather Stations

Station Location Temp. Windchill Dew Point Humidity Wind Precip. Elev Updated Type
                   

Watches & Warnings

There are currently no watches in effect.